Time;durP1;ratioP1;P1;durP2;ratioP2;P2;SDS_P1;SDS_P2;PMS_P1;PMS_P2;Temp;Humidity;BMP_temperature;BMP_pressure;BME280_temperature;BME280_humidity;BME280_pressure;Samples;Min_cycle;Max_cycle;Signal;HPM_P1;HPM_P2
2022/02/21 00:00:47;;;;;;;12.67;1.80;;;;;;;;;;5055331;28;20173;-73
2022/02/21 00:03:15;;;;;;;15.20;2.93;;;;;;;;;;5057887;28;20279;-72
2022/02/21 00:05:40;;;;;;;12.97;3.23;;;;;;;;;;5061572;28;20254;-72
2022/02/21 00:08:05;;;;;;;10.57;2.70;;;;;;;;;;5034406;28;20240;-73
2022/02/21 00:10:30;;;;;;;18.47;4.03;;;;;;;;;;5039706;28;20554;-72
2022/02/21 00:12:56;;;;;;;6.77;2.43;;;;;;;;;;5058152;28;20198;-74
2022/02/21 00:15:23;;;;;;;6.30;2.53;;;;;;;;;;5057732;28;20659;-72
2022/02/21 00:17:52;;;;;;;7.63;1.83;;;;;;;;;;5042233;28;20225;-71
2022/02/21 00:20:17;;;;;;;13.47;2.57;;;;;;;;;;5042918;28;20231;-71
2022/02/21 00:22:42;;;;;;;9.83;2.37;;;;;;;;;;5035924;28;20218;-72
2022/02/21 00:25:08;;;;;;;15.03;2.63;;;;;;;;;;5035262;28;20190;-71
2022/02/21 00:27:33;;;;;;;11.07;1.87;;;;;;;;;;5047405;28;20246;-72
2022/02/21 00:29:59;;;;;;;10.43;2.50;;;;;;;;;;5053966;28;20216;-72
2022/02/21 00:32:24;;;;;;;9.53;1.73;;;;;;;;;;5053084;28;20233;-72
2022/02/21 00:34:49;;;;;;;7.67;2.40;;;;;;;;;;5054659;28;20177;-72
2022/02/21 00:37:14;;;;;;;10.20;2.70;;;;;;;;;;5053265;28;20194;-72
2022/02/21 00:39:39;;;;;;;14.17;3.00;;;;;;;;;;5051868;28;20227;-72
2022/02/21 00:42:05;;;;;;;11.83;2.17;;;;;;;;;;5047382;28;20565;-72
2022/02/21 00:44:30;;;;;;;9.63;2.60;;;;;;;;;;5049271;28;20173;-72
2022/02/21 00:46:56;;;;;;;11.97;2.33;;;;;;;;;;5049942;28;20205;-72
2022/02/21 00:49:21;;;;;;;11.03;2.03;;;;;;;;;;5052065;28;20189;-72
2022/02/21 00:51:46;;;;;;;10.57;2.50;;;;;;;;;;5052728;28;20209;-72
2022/02/21 00:54:11;;;;;;;5.73;2.17;;;;;;;;;;5054468;28;20261;-73
2022/02/21 00:56:37;;;;;;;8.13;2.10;;;;;;;;;;5058343;28;20639;-73
2022/02/21 00:59:02;;;;;;;9.00;2.20;;;;;;;;;;5057126;28;20251;-72
2022/02/21 01:01:27;;;;;;;11.50;2.07;;;;;;;;;;5053807;28;20651;-72
2022/02/21 01:03:52;;;;;;;9.73;2.30;;;;;;;;;;5057813;28;20181;-73
2022/02/21 01:06:19;;;;;;;17.37;3.87;;;;;;;;;;5054185;28;20585;-72
2022/02/21 01:08:44;;;;;;;7.13;2.00;;;;;;;;;;5053443;28;20476;-72
2022/02/21 01:11:10;;;;;;;7.40;2.07;;;;;;;;;;5050524;28;20273;-72
2022/02/21 01:13:35;;;;;;;5.67;1.67;;;;;;;;;;5051482;28;20181;-72
2022/02/21 01:16:00;;;;;;;5.77;1.63;;;;;;;;;;5051608;28;20582;-72
2022/02/21 01:18:25;;;;;;;8.30;2.03;;;;;;;;;;5049978;28;20969;-73
2022/02/21 01:20:51;;;;;;;9.03;1.90;;;;;;;;;;5050027;28;20174;-71
2022/02/21 01:23:16;;;;;;;7.30;2.57;;;;;;;;;;5050377;28;20179;-71
2022/02/21 01:25:42;;;;;;;7.23;2.70;;;;;;;;;;5046294;28;20226;-72
2022/02/21 01:28:07;;;;;;;8.00;1.50;;;;;;;;;;5008198;28;1156367;-71
2022/02/21 01:30:33;;;;;;;13.17;2.87;;;;;;;;;;5049978;28;20182;-72
2022/02/21 01:32:58;;;;;;;11.10;2.10;;;;;;;;;;5047344;28;20281;-71
2022/02/21 01:35:23;;;;;;;6.17;1.60;;;;;;;;;;5047343;28;20210;-72
2022/02/21 01:37:48;;;;;;;13.10;3.00;;;;;;;;;;5046818;28;20251;-71
2022/02/21 01:40:15;;;;;;;10.47;2.30;;;;;;;;;;5048880;28;20533;-72
2022/02/21 01:42:40;;;;;;;22.10;2.50;;;;;;;;;;5047445;28;20583;-72
2022/02/21 01:45:06;;;;;;;9.33;2.53;;;;;;;;;;5050103;28;20189;-72
2022/02/21 01:47:31;;;;;;;8.00;1.90;;;;;;;;;;5051391;28;20272;-72
2022/02/21 01:49:56;;;;;;;8.37;1.87;;;;;;;;;;5051065;28;20193;-72
2022/02/21 01:52:21;;;;;;;7.70;2.53;;;;;;;;;;5052276;28;20880;-71
2022/02/21 01:54:47;;;;;;;8.83;2.43;;;;;;;;;;5049755;28;20178;-72
2022/02/21 01:57:12;;;;;;;10.63;2.17;;;;;;;;;;5054813;28;20250;-71
2022/02/21 01:59:38;;;;;;;13.13;3.07;;;;;;;;;;5050349;28;20686;-71
2022/02/21 02:02:05;;;;;;;16.07;2.80;;;;;;;;;;5050979;28;20263;-72
2022/02/21 02:04:30;;;;;;;9.97;2.17;;;;;;;;;;5050699;28;20705;-72
2022/02/21 02:06:55;;;;;;;10.20;1.97;;;;;;;;;;5051429;28;20185;-72
2022/02/21 02:09:20;;;;;;;8.93;1.97;;;;;;;;;;5052317;28;20182;-71
2022/02/21 02:11:46;;;;;;;10.03;2.93;;;;;;;;;;5050375;28;20209;-70
2022/02/21 02:14:26;;;;;;;6.70;1.80;;;;;;;;;;5050747;28;20712;-72
2022/02/21 02:16:51;;;;;;;6.17;1.73;;;;;;;;;;5049629;28;20181;-72
2022/02/21 02:19:17;;;;;;;12.43;1.93;;;;;;;;;;5049706;28;20195;-72
2022/02/21 02:21:42;;;;;;;13.73;2.13;;;;;;;;;;5051068;28;20651;-71
2022/02/21 02:24:07;;;;;;;13.47;2.27;;;;;;;;;;5050371;28;20196;-71
2022/02/21 02:26:38;;;;;;;17.37;3.33;;;;;;;;;;5051895;28;20181;-72
2022/02/21 02:29:03;;;;;;;8.20;1.87;;;;;;;;;;5064846;22;20683;-70
2022/02/21 02:31:28;;;;;;;7.37;1.93;;;;;;;;;;5050070;28;20236;-70
2022/02/21 02:33:53;;;;;;;6.17;1.97;;;;;;;;;;5049942;28;20180;-69
2022/02/21 02:36:18;;;;;;;14.53;2.53;;;;;;;;;;5049251;28;20185;-70
2022/02/21 02:38:44;;;;;;;9.43;2.30;;;;;;;;;;5050154;28;20205;-70
2022/02/21 02:41:09;;;;;;;6.77;2.37;;;;;;;;;;5048900;28;20180;-70
2022/02/21 02:43:35;;;;;;;9.60;2.40;;;;;;;;;;5044776;28;20682;-70
2022/02/21 02:46:00;;;;;;;10.97;2.37;;;;;;;;;;5054103;28;20320;-70
2022/02/21 02:48:25;;;;;;;9.83;1.90;;;;;;;;;;5049815;28;20294;-70
2022/02/21 02:50:50;;;;;;;9.27;2.33;;;;;;;;;;5050206;28;20304;-70
2022/02/21 02:53:16;;;;;;;11.83;2.47;;;;;;;;;;5048900;28;20216;-70
2022/02/21 02:55:41;;;;;;;11.33;2.40;;;;;;;;;;5051012;28;20546;-70
2022/02/21 02:58:06;;;;;;;15.87;2.20;;;;;;;;;;5049021;28;20214;-69
2022/02/21 03:00:31;;;;;;;9.40;1.77;;;;;;;;;;5044911;28;20185;-69
2022/02/21 03:02:56;;;;;;;8.10;1.80;;;;;;;;;;5049728;28;20188;-70
2022/02/21 03:05:22;;;;;;;15.87;3.33;;;;;;;;;;5047824;28;20216;-69
2022/02/21 03:07:47;;;;;;;10.37;2.20;;;;;;;;;;5050344;28;20197;-69
2022/02/21 03:10:12;;;;;;;11.23;4.07;;;;;;;;;;5049481;28;20192;-69
2022/02/21 03:12:37;;;;;;;10.20;2.27;;;;;;;;;;5048268;28;20805;-69
2022/02/21 03:15:02;;;;;;;6.90;2.80;;;;;;;;;;5049802;28;20513;-70
2022/02/21 03:17:28;;;;;;;12.17;2.17;;;;;;;;;;5048020;28;20225;-69
2022/02/21 03:19:53;;;;;;;8.87;2.07;;;;;;;;;;5049050;28;20170;-70
2022/02/21 03:22:18;;;;;;;11.47;2.60;;;;;;;;;;5046706;28;20413;-70
2022/02/21 03:24:43;;;;;;;6.67;2.20;;;;;;;;;;5043954;28;20177;-69
2022/02/21 03:27:09;;;;;;;12.43;2.10;;;;;;;;;;5048450;28;20186;-70
2022/02/21 03:29:34;;;;;;;8.50;1.90;;;;;;;;;;5046117;28;20268;-69
2022/02/21 03:31:59;;;;;;;10.87;2.23;;;;;;;;;;5046654;28;20209;-69
2022/02/21 03:34:24;;;;;;;20.47;3.30;;;;;;;;;;5025420;28;20235;-70
2022/02/21 03:36:49;;;;;;;12.80;2.43;;;;;;;;;;5049023;28;20864;-69
2022/02/21 03:39:15;;;;;;;10.73;2.53;;;;;;;;;;5049130;28;20197;-70
2022/02/21 03:41:40;;;;;;;12.60;2.83;;;;;;;;;;5048467;28;20185;-71
2022/02/21 03:44:05;;;;;;;12.73;2.27;;;;;;;;;;5042530;28;20220;-70
2022/02/21 03:46:31;;;;;;;9.60;2.43;;;;;;;;;;5048139;28;20193;-69
2022/02/21 03:48:57;;;;;;;13.30;2.40;;;;;;;;;;5049738;28;20233;-69
2022/02/21 03:51:22;;;;;;;11.37;2.60;;;;;;;;;;5049478;28;20288;-69
2022/02/21 03:53:47;;;;;;;20.33;3.27;;;;;;;;;;5048612;28;20268;-69
2022/02/21 03:56:12;;;;;;;10.70;3.43;;;;;;;;;;5054994;28;20181;-69
2022/02/21 03:58:38;;;;;;;9.87;2.07;;;;;;;;;;5047001;28;20687;-69
2022/02/21 04:01:03;;;;;;;5.33;1.60;;;;;;;;;;5042229;28;20621;-69
2022/02/21 04:03:28;;;;;;;12.43;3.17;;;;;;;;;;5042519;28;20178;-70
2022/02/21 04:05:53;;;;;;;11.63;2.57;;;;;;;;;;5046001;28;20272;-71
2022/02/21 04:08:18;;;;;;;11.97;2.00;;;;;;;;;;5012570;28;20703;-72
2022/02/21 04:10:44;;;;;;;7.63;1.83;;;;;;;;;;5049910;28;20586;-69
2022/02/21 04:13:09;;;;;;;12.47;1.80;;;;;;;;;;5049812;28;20219;-71
2022/02/21 04:15:34;;;;;;;7.03;1.77;;;;;;;;;;5057560;28;20174;-71
2022/02/21 04:17:59;;;;;;;4.53;1.50;;;;;;;;;;5062845;28;20194;-70
2022/02/21 04:20:27;;;;;;;7.23;1.70;;;;;;;;;;5053179;28;20185;-69
2022/02/21 04:22:52;;;;;;;9.57;2.50;;;;;;;;;;5052793;28;20185;-71
2022/02/21 04:25:18;;;;;;;11.90;3.10;;;;;;;;;;5052504;28;20185;-71
2022/02/21 04:27:43;;;;;;;7.40;2.40;;;;;;;;;;5052734;28;20269;-71
2022/02/21 04:30:08;;;;;;;7.90;1.90;;;;;;;;;;5053689;28;20208;-70
2022/02/21 04:32:35;;;;;;;8.23;1.73;;;;;;;;;;5052623;28;20209;-72
2022/02/21 04:35:00;;;;;;;7.17;1.77;;;;;;;;;;5050526;28;20189;-69
2022/02/21 04:37:25;;;;;;;7.33;1.60;;;;;;;;;;5051187;28;20193;-69
2022/02/21 04:39:50;;;;;;;8.87;2.80;;;;;;;;;;5049836;28;20444;-72
2022/02/21 04:42:15;;;;;;;11.33;2.67;;;;;;;;;;5050208;28;20647;-69
2022/02/21 04:44:40;;;;;;;8.00;1.80;;;;;;;;;;5050939;28;20186;-69
2022/02/21 04:47:06;;;;;;;6.63;2.30;;;;;;;;;;5051320;28;20534;-72
2022/02/21 04:49:31;;;;;;;11.40;2.63;;;;;;;;;;5051118;28;20255;-69
2022/02/21 04:51:57;;;;;;;15.80;2.93;;;;;;;;;;5047404;28;20235;-69
2022/02/21 04:54:23;;;;;;;9.00;2.33;;;;;;;;;;5050650;28;20706;-69
2022/02/21 04:56:48;;;;;;;13.03;2.17;;;;;;;;;;5051648;28;20280;-69
2022/02/21 04:59:13;;;;;;;8.60;1.67;;;;;;;;;;5050764;28;20561;-69
2022/02/21 05:01:38;;;;;;;15.43;1.97;;;;;;;;;;5050916;28;20256;-69
2022/02/21 05:04:03;;;;;;;15.90;2.73;;;;;;;;;;5045057;28;20204;-69
2022/02/21 05:06:28;;;;;;;11.47;2.93;;;;;;;;;;5047550;28;20189;-70
2022/02/21 05:08:54;;;;;;;6.50;1.50;;;;;;;;;;5049991;28;20197;-72
2022/02/21 05:11:19;;;;;;;11.97;2.13;;;;;;;;;;5051264;28;20647;-70
2022/02/21 05:13:44;;;;;;;8.67;1.97;;;;;;;;;;5051673;28;20547;-69
2022/02/21 05:16:09;;;;;;;7.00;1.90;;;;;;;;;;5051862;28;20183;-69
2022/02/21 05:18:35;;;;;;;13.70;2.87;;;;;;;;;;5029492;28;20193;-69
2022/02/21 05:21:00;;;;;;;14.33;2.80;;;;;;;;;;5053452;28;20178;-70
2022/02/21 05:23:25;;;;;;;9.83;2.73;;;;;;;;;;5052208;28;20201;-69
2022/02/21 05:25:50;;;;;;;11.13;2.43;;;;;;;;;;5050757;28;20213;-70
2022/02/21 05:28:15;;;;;;;11.37;2.00;;;;;;;;;;5052664;28;20213;-69
2022/02/21 05:30:41;;;;;;;8.27;2.30;;;;;;;;;;5050361;28;20196;-70
2022/02/21 05:33:06;;;;;;;7.53;2.30;;;;;;;;;;5051043;28;20202;-70
2022/02/21 05:35:31;;;;;;;11.10;1.93;;;;;;;;;;5050138;28;20170;-71
2022/02/21 05:37:56;;;;;;;7.80;2.73;;;;;;;;;;5050921;28;20221;-70
2022/02/21 05:40:21;;;;;;;11.73;2.17;;;;;;;;;;5050818;28;20199;-70
2022/02/21 05:42:47;;;;;;;11.53;3.67;;;;;;;;;;5050119;28;20190;-70
2022/02/21 05:45:12;;;;;;;8.20;1.97;;;;;;;;;;5051010;28;20243;-70
2022/02/21 05:47:37;;;;;;;11.00;2.80;;;;;;;;;;5049714;28;20313;-70
2022/02/21 05:50:02;;;;;;;11.73;3.57;;;;;;;;;;5050436;28;20562;-70
2022/02/21 05:52:28;;;;;;;14.83;3.00;;;;;;;;;;5048651;28;20209;-70
2022/02/21 05:54:53;;;;;;;13.67;2.83;;;;;;;;;;5048912;28;20197;-70
2022/02/21 05:57:18;;;;;;;11.27;2.73;;;;;;;;;;5046158;28;20260;-70
2022/02/21 05:59:43;;;;;;;8.90;3.00;;;;;;;;;;5048930;28;20185;-70
2022/02/21 06:02:08;;;;;;;19.50;3.07;;;;;;;;;;5044821;28;20193;-70
2022/02/21 06:04:34;;;;;;;8.50;2.23;;;;;;;;;;5048944;28;20213;-71
2022/02/21 06:06:59;;;;;;;10.33;2.13;;;;;;;;;;5049966;28;20661;-70
2022/02/21 06:09:25;;;;;;;11.23;2.10;;;;;;;;;;5054471;28;20201;-70
2022/02/21 06:11:50;;;;;;;7.07;2.10;;;;;;;;;;5030849;28;20202;-71
2022/02/21 06:14:15;;;;;;;13.47;2.60;;;;;;;;;;5050531;28;20177;-70
2022/02/21 06:16:41;;;;;;;11.70;2.00;;;;;;;;;;5048375;28;20166;-70
2022/02/21 06:19:06;;;;;;;9.87;2.17;;;;;;;;;;5049786;28;20205;-71
2022/02/21 06:21:32;;;;;;;10.83;2.77;;;;;;;;;;5050287;28;20236;-70
2022/02/21 06:23:57;;;;;;;15.20;2.80;;;;;;;;;;5053036;28;20177;-70
2022/02/21 06:26:22;;;;;;;10.77;2.10;;;;;;;;;;5048404;28;20185;-70
2022/02/21 06:28:47;;;;;;;12.77;2.93;;;;;;;;;;5049652;28;20213;-70
2022/02/21 06:31:12;;;;;;;16.90;2.67;;;;;;;;;;5050014;28;20184;-70
2022/02/21 06:33:38;;;;;;;18.00;2.20;;;;;;;;;;5048774;28;20179;-69
2022/02/21 06:36:03;;;;;;;28.23;4.03;;;;;;;;;;5050462;28;20209;-70
2022/02/21 06:38:28;;;;;;;16.23;2.57;;;;;;;;;;5047294;28;20659;-70
2022/02/21 06:40:53;;;;;;;11.57;2.17;;;;;;;;;;5045664;28;20182;-71
2022/02/21 06:43:19;;;;;;;16.63;2.60;;;;;;;;;;5049684;28;20209;-70
2022/02/21 06:45:45;;;;;;;10.70;2.03;;;;;;;;;;5049843;28;20182;-70
2022/02/21 06:48:10;;;;;;;14.00;4.33;;;;;;;;;;5050835;28;20208;-70
2022/02/21 06:50:35;;;;;;;14.17;3.30;;;;;;;;;;5049454;28;20177;-70
2022/02/21 06:53:01;;;;;;;8.67;3.00;;;;;;;;;;5050200;28;20217;-70
2022/02/21 06:55:26;;;;;;;11.57;2.47;;;;;;;;;;5049567;28;20212;-69
2022/02/21 06:57:53;;;;;;;12.73;3.00;;;;;;;;;;5050210;28;20201;-69
2022/02/21 07:00:18;;;;;;;15.87;2.30;;;;;;;;;;5050704;28;20227;-69
2022/02/21 07:02:44;;;;;;;16.40;2.37;;;;;;;;;;5040988;28;20185;-70
2022/02/21 07:05:09;;;;;;;18.83;3.30;;;;;;;;;;5045901;28;20181;-70
2022/02/21 07:07:35;;;;;;;9.80;3.40;;;;;;;;;;5047954;28;20201;-70
2022/02/21 07:10:01;;;;;;;10.03;2.47;;;;;;;;;;5031620;28;20187;-69
2022/02/21 07:12:26;;;;;;;12.87;2.60;;;;;;;;;;5049708;28;20271;-70
2022/02/21 07:14:51;;;;;;;15.13;3.10;;;;;;;;;;5024321;28;20268;-70
2022/02/21 07:17:16;;;;;;;9.23;2.10;;;;;;;;;;5050432;28;20181;-70
2022/02/21 07:19:41;;;;;;;8.57;1.77;;;;;;;;;;5049041;28;20177;-70
2022/02/21 07:22:06;;;;;;;12.07;2.40;;;;;;;;;;5050337;28;20715;-70
2022/02/21 07:24:32;;;;;;;12.63;2.83;;;;;;;;;;5048753;28;20643;-70
2022/02/21 07:26:57;;;;;;;10.53;2.70;;;;;;;;;;5042513;28;20181;-70
2022/02/21 07:29:23;;;;;;;12.27;2.97;;;;;;;;;;5048271;28;20235;-69
2022/02/21 07:31:48;;;;;;;14.50;2.83;;;;;;;;;;5049088;28;20280;-70
2022/02/21 07:34:14;;;;;;;12.40;3.53;;;;;;;;;;5049084;28;20185;-69
2022/02/21 07:36:39;;;;;;;10.23;2.93;;;;;;;;;;5049117;28;20269;-69
2022/02/21 07:39:04;;;;;;;9.73;2.60;;;;;;;;;;5048052;28;20553;-70
2022/02/21 07:41:29;;;;;;;11.20;3.43;;;;;;;;;;5046508;28;20611;-70
2022/02/21 07:43:54;;;;;;;11.27;2.50;;;;;;;;;;5046775;28;20185;-70
2022/02/21 07:46:20;;;;;;;13.13;3.10;;;;;;;;;;5048854;28;20186;-70
2022/02/21 07:48:45;;;;;;;10.10;2.03;;;;;;;;;;5049058;28;20231;-70
2022/02/21 07:51:10;;;;;;;8.73;2.73;;;;;;;;;;5031862;28;20184;-71
2022/02/21 07:53:35;;;;;;;18.77;3.20;;;;;;;;;;5045246;28;20205;-70
2022/02/21 07:56:00;;;;;;;12.53;2.60;;;;;;;;;;5052191;28;20259;-69
2022/02/21 07:58:25;;;;;;;20.90;3.27;;;;;;;;;;5049930;28;20262;-69
2022/02/21 08:00:51;;;;;;;12.70;2.77;;;;;;;;;;5051872;28;20186;-69
2022/02/21 08:03:16;;;;;;;13.37;3.00;;;;;;;;;;5033902;28;20189;-70
2022/02/21 08:05:42;;;;;;;6.47;2.20;;;;;;;;;;5052158;28;20569;-69
2022/02/21 08:08:07;;;;;;;14.10;3.83;;;;;;;;;;5052151;28;20667;-70
2022/02/21 08:10:33;;;;;;;16.10;3.27;;;;;;;;;;5050349;28;20712;-69
2022/02/21 08:12:58;;;;;;;8.73;2.00;;;;;;;;;;5048008;28;20215;-70
2022/02/21 08:15:24;;;;;;;10.60;2.13;;;;;;;;;;5045864;28;20592;-70
2022/02/21 08:17:49;;;;;;;15.43;2.80;;;;;;;;;;5050735;28;20201;-70
2022/02/21 08:20:15;;;;;;;8.47;1.87;;;;;;;;;;5051888;28;20178;-70
2022/02/21 08:22:41;;;;;;;15.53;2.40;;;;;;;;;;5054272;28;20185;-70
2022/02/21 08:25:07;;;;;;;11.17;2.90;;;;;;;;;;5052198;28;20173;-70
2022/02/21 08:27:34;;;;;;;8.00;2.27;;;;;;;;;;5050197;28;20213;-68
2022/02/21 08:29:59;;;;;;;10.90;2.43;;;;;;;;;;5048803;28;20631;-66
2022/02/21 08:32:24;;;;;;;14.60;2.37;;;;;;;;;;5043268;28;20205;-69
2022/02/21 08:34:49;;;;;;;15.37;3.93;;;;;;;;;;5047313;28;20212;-67
2022/02/21 08:37:14;;;;;;;11.13;2.43;;;;;;;;;;5052275;28;20188;-68
2022/02/21 08:39:40;;;;;;;11.73;2.70;;;;;;;;;;5053272;28;20172;-68
2022/02/21 08:42:05;;;;;;;11.37;2.47;;;;;;;;;;5051982;28;20193;-68
2022/02/21 08:44:34;;;;;;;11.67;3.27;;;;;;;;;;5043784;28;20185;-66
2022/02/21 08:46:59;;;;;;;13.27;2.23;;;;;;;;;;5053960;28;20559;-68
2022/02/21 08:49:24;;;;;;;18.87;3.27;;;;;;;;;;5056571;28;20201;-69
2022/02/21 08:51:49;;;;;;;16.10;3.00;;;;;;;;;;5048205;28;20296;-69
2022/02/21 08:54:17;;;;;;;17.03;3.90;;;;;;;;;;5050952;28;20177;-68
2022/02/21 08:56:42;;;;;;;19.63;3.37;;;;;;;;;;5047259;28;20173;-68
2022/02/21 08:59:07;;;;;;;18.23;2.70;;;;;;;;;;5051577;28;20197;-68
2022/02/21 09:01:32;;;;;;;13.57;2.93;;;;;;;;;;5051996;28;20185;-68
2022/02/21 09:03:58;;;;;;;16.10;2.20;;;;;;;;;;5046113;28;21451;-68
2022/02/21 09:06:23;;;;;;;11.63;2.27;;;;;;;;;;5052756;28;20272;-68
2022/02/21 09:08:48;;;;;;;20.23;2.87;;;;;;;;;;5048173;28;20205;-67
2022/02/21 09:11:13;;;;;;;18.23;3.27;;;;;;;;;;5050137;28;20701;-68
2022/02/21 09:13:38;;;;;;;18.40;3.33;;;;;;;;;;5033853;28;20643;-67
2022/02/21 09:16:04;;;;;;;11.77;3.10;;;;;;;;;;5051275;28;20602;-68
2022/02/21 09:18:29;;;;;;;22.03;4.10;;;;;;;;;;5046426;28;20225;-69
2022/02/21 09:20:55;;;;;;;23.70;3.80;;;;;;;;;;5051471;28;20177;-68
2022/02/21 09:23:20;;;;;;;14.50;3.10;;;;;;;;;;5052342;28;20180;-68
2022/02/21 09:25:46;;;;;;;16.53;5.60;;;;;;;;;;5051060;28;20185;-69
2022/02/21 09:28:11;;;;;;;12.90;2.13;;;;;;;;;;5051875;28;20579;-67
2022/02/21 09:30:37;;;;;;;15.60;3.00;;;;;;;;;;5049366;28;20184;-69
2022/02/21 09:33:02;;;;;;;19.50;4.37;;;;;;;;;;5048683;28;20240;-68
2022/02/21 09:35:27;;;;;;;16.60;3.37;;;;;;;;;;5046389;28;20173;-68
2022/02/21 09:37:52;;;;;;;15.00;3.73;;;;;;;;;;5051223;28;20570;-68
2022/02/21 09:40:19;;;;;;;17.13;3.43;;;;;;;;;;5049518;28;20567;-67
2022/02/21 09:42:45;;;;;;;15.03;2.43;;;;;;;;;;5047629;28;20174;-67
2022/02/21 09:45:11;;;;;;;20.00;3.67;;;;;;;;;;5048480;28;20177;-68
2022/02/21 09:47:36;;;;;;;14.13;3.67;;;;;;;;;;5048630;28;20193;-68
2022/02/21 09:50:03;;;;;;;16.93;3.67;;;;;;;;;;5051949;28;20196;-69
2022/02/21 09:52:28;;;;;;;13.93;3.43;;;;;;;;;;5058386;28;20204;-68
2022/02/21 09:54:54;;;;;;;19.47;3.00;;;;;;;;;;5037642;28;20182;-70
2022/02/21 09:57:19;;;;;;;12.73;3.77;;;;;;;;;;5049730;28;20178;-68
2022/02/21 09:59:45;;;;;;;17.03;3.63;;;;;;;;;;5048110;28;20165;-70
2022/02/21 10:02:14;;;;;;;18.90;3.70;;;;;;;;;;5050076;28;20231;-68
2022/02/21 10:04:39;;;;;;;24.27;4.23;;;;;;;;;;5037018;28;20209;-70
2022/02/21 10:07:04;;;;;;;36.83;6.87;;;;;;;;;;5051574;28;20205;-68
2022/02/21 10:09:29;;;;;;;21.20;4.00;;;;;;;;;;5049912;28;20232;-67
2022/02/21 10:11:56;;;;;;;22.33;4.50;;;;;;;;;;5049946;28;20194;-71
2022/02/21 10:14:23;;;;;;;16.57;4.03;;;;;;;;;;5054986;28;20177;-69
2022/02/21 10:16:53;;;;;;;16.17;3.67;;;;;;;;;;5049662;28;20173;-67
2022/02/21 10:19:23;;;;;;;19.67;4.33;;;;;;;;;;5037724;28;20324;-67
2022/02/21 10:22:10;;;;;;;24.50;4.73;;;;;;;;;;5040304;28;21951;-68
2022/02/21 10:24:41;;;;;;;28.30;4.37;;;;;;;;;;5044044;28;20220;-68
2022/02/21 10:27:11;;;;;;;23.00;3.67;;;;;;;;;;5051298;28;20557;-67
2022/02/21 10:29:47;;;;;;;21.70;3.77;;;;;;;;;;5049464;28;20205;-68
2022/02/21 10:32:12;;;;;;;28.13;5.20;;;;;;;;;;5047997;28;20204;-67
2022/02/21 10:34:38;;;;;;;28.80;4.87;;;;;;;;;;5048076;28;20177;-67
2022/02/21 10:37:04;;;;;;;17.77;5.17;;;;;;;;;;5050109;28;20180;-68
2022/02/21 10:39:29;;;;;;;24.13;4.80;;;;;;;;;;5049089;28;20170;-67
2022/02/21 10:41:55;;;;;;;21.00;5.17;;;;;;;;;;5047354;28;20196;-67
2022/02/21 10:44:24;;;;;;;16.10;3.37;;;;;;;;;;5041729;28;20231;-69
2022/02/21 10:47:00;;;;;;;25.97;5.57;;;;;;;;;;5044514;28;20216;-69
2022/02/21 10:49:25;;;;;;;15.47;3.50;;;;;;;;;;5049118;28;20266;-68
2022/02/21 10:51:50;;;;;;;29.47;4.90;;;;;;;;;;5048387;28;20194;-68
2022/02/21 10:54:16;;;;;;;21.00;5.20;;;;;;;;;;5048023;28;20185;-68
2022/02/21 10:56:44;;;;;;;16.23;5.00;;;;;;;;;;5032455;28;20257;-71
2022/02/21 10:59:20;;;;;;;20.17;4.40;;;;;;;;;;5049344;28;20225;-67
2022/02/21 11:01:45;;;;;;;22.90;5.30;;;;;;;;;;5050243;28;20242;-66
2022/02/21 11:04:11;;;;;;;19.57;5.10;;;;;;;;;;5047972;28;20647;-69
2022/02/21 11:06:36;;;;;;;26.73;5.40;;;;;;;;;;5050081;28;20281;-67
2022/02/21 11:09:02;;;;;;;26.30;6.37;;;;;;;;;;5049579;28;20262;-68
2022/02/21 11:11:27;;;;;;;21.27;5.10;;;;;;;;;;5050016;28;20239;-67
2022/02/21 11:13:53;;;;;;;28.20;4.80;;;;;;;;;;5044869;28;20212;-68
2022/02/21 11:16:19;;;;;;;26.03;5.93;;;;;;;;;;5050294;28;20177;-68
2022/02/21 11:18:44;;;;;;;22.07;4.00;;;;;;;;;;5048944;28;20736;-70
2022/02/21 11:21:09;;;;;;;20.70;5.40;;;;;;;;;;5044212;28;20859;-70
2022/02/21 11:23:35;;;;;;;24.47;4.50;;;;;;;;;;5045229;28;20178;-69
2022/02/21 11:26:13;;;;;;;22.30;4.40;;;;;;;;;;5027625;28;20178;-70
2022/02/21 11:28:42;;;;;;;21.23;4.40;;;;;;;;;;5052009;28;20220;-70
2022/02/21 11:31:08;;;;;;;21.83;4.87;;;;;;;;;;5052841;28;20248;-69
2022/02/21 11:33:53;;;;;;;16.00;3.87;;;;;;;;;;5049681;28;20255;-70
2022/02/21 11:36:20;;;;;;;20.73;3.63;;;;;;;;;;5029382;28;20181;-70
2022/02/21 11:38:46;;;;;;;16.33;4.37;;;;;;;;;;5032905;28;20276;-71
2022/02/21 11:41:12;;;;;;;20.20;4.47;;;;;;;;;;5046413;28;20289;-71
2022/02/21 11:43:43;;;;;;;17.43;3.70;;;;;;;;;;5047921;28;20639;-70
2022/02/21 11:46:25;;;;;;;24.53;4.23;;;;;;;;;;5047744;28;20185;-70
2022/02/21 11:48:54;;;;;;;20.93;4.57;;;;;;;;;;5043646;28;20200;-70
2022/02/21 11:51:34;;;;;;;25.70;5.50;;;;;;;;;;5047762;28;20662;-69
2022/02/21 11:54:08;;;;;;;15.63;4.37;;;;;;;;;;5048400;28;20180;-69
2022/02/21 11:56:49;;;;;;;25.83;6.13;;;;;;;;;;5046758;28;20176;-71
2022/02/21 11:59:28;;;;;;;23.70;5.47;;;;;;;;;;5028025;28;20577;-70
2022/02/21 12:01:53;;;;;;;16.03;3.60;;;;;;;;;;5049259;28;20185;-70
2022/02/21 12:04:20;;;;;;;22.92;4.50;;;;;;;;;;5045926;28;20551;-70
2022/02/21 12:06:52;;;;;;;7.53;2.80;;;;;;;;;;5049267;28;20530;-71
2022/02/21 12:09:17;;;;;;;23.20;4.27;;;;;;;;;;5051646;28;20229;-68
2022/02/21 12:11:42;;;;;;;12.07;2.73;;;;;;;;;;5049740;28;20221;-68
2022/02/21 12:14:10;;;;;;;10.30;2.47;;;;;;;;;;5047684;28;20273;-68
2022/02/21 12:16:54;;;;;;;17.33;3.80;;;;;;;;;;5047794;28;20210;-69
2022/02/21 12:19:26;;;;;;;17.70;3.63;;;;;;;;;;5046827;28;20694;-70
2022/02/21 12:22:06;;;;;;;16.70;4.03;;;;;;;;;;5045698;28;20264;-67
2022/02/21 12:24:31;;;;;;;19.00;4.67;;;;;;;;;;5037822;28;20183;-68
2022/02/21 12:27:13;;;;;;;21.53;3.70;;;;;;;;;;5048391;28;20201;-69
2022/02/21 12:29:39;;;;;;;13.30;3.60;;;;;;;;;;5028085;28;20275;-69
2022/02/21 12:32:05;;;;;;;13.60;2.97;;;;;;;;;;5046750;28;20193;-68
2022/02/21 12:34:32;;;;;;;16.10;3.63;;;;;;;;;;5049353;28;20184;-69
2022/02/21 12:36:58;;;;;;;24.50;3.40;;;;;;;;;;5048932;28;20166;-68
2022/02/21 12:39:26;;;;;;;23.57;4.77;;;;;;;;;;5047184;28;20198;-68
2022/02/21 12:41:52;;;;;;;20.67;5.47;;;;;;;;;;5030077;28;20181;-69
2022/02/21 12:44:18;;;;;;;20.53;4.77;;;;;;;;;;5053004;28;20188;-67
2022/02/21 12:46:46;;;;;;;18.23;3.90;;;;;;;;;;5051079;28;20256;-67
2022/02/21 12:49:15;;;;;;;22.50;5.03;;;;;;;;;;5048845;28;20221;-68
2022/02/21 12:51:40;;;;;;;22.33;4.50;;;;;;;;;;5050671;28;20197;-68
2022/02/21 12:54:05;;;;;;;15.07;3.73;;;;;;;;;;5049661;28;20182;-69
2022/02/21 12:56:46;;;;;;;15.23;3.23;;;;;;;;;;5050367;28;20170;-69
2022/02/21 12:59:11;;;;;;;16.57;3.23;;;;;;;;;;5053469;28;20209;-68
2022/02/21 13:01:37;;;;;;;20.07;3.53;;;;;;;;;;5048766;28;20192;-68
2022/02/21 13:04:02;;;;;;;14.90;3.80;;;;;;;;;;5052256;28;20546;-67
2022/02/21 13:06:28;;;;;;;17.87;3.70;;;;;;;;;;5049519;28;20215;-68
2022/02/21 13:08:53;;;;;;;10.40;2.67;;;;;;;;;;5052487;28;20278;-68
2022/02/21 13:11:26;;;;;;;14.33;4.23;;;;;;;;;;5051281;28;20651;-68
2022/02/21 13:13:52;;;;;;;33.33;5.53;;;;;;;;;;5050117;28;20239;-69
2022/02/21 13:16:17;;;;;;;20.17;4.20;;;;;;;;;;5050828;28;20181;-67
2022/02/21 13:18:49;;;;;;;20.00;3.87;;;;;;;;;;5052859;28;20280;-69
2022/02/21 13:21:24;;;;;;;14.00;3.17;;;;;;;;;;5050145;28;20182;-69
2022/02/21 13:23:49;;;;;;;15.73;3.47;;;;;;;;;;5046667;28;20216;-68
2022/02/21 13:26:15;;;;;;;17.47;3.50;;;;;;;;;;5036564;28;20296;-68
2022/02/21 13:28:43;;;;;;;15.37;3.33;;;;;;;;;;5031401;28;20294;-68
2022/02/21 13:31:08;;;;;;;12.47;3.37;;;;;;;;;;5050937;28;20323;-67
2022/02/21 13:33:43;;;;;;;12.57;2.73;;;;;;;;;;5048309;28;20320;-68
2022/02/21 13:36:08;;;;;;;17.63;3.90;;;;;;;;;;5050780;28;20610;-67
2022/02/21 13:38:34;;;;;;;21.83;3.10;;;;;;;;;;5049877;28;20205;-69
2022/02/21 13:41:01;;;;;;;14.17;2.87;;;;;;;;;;5051771;28;20173;-68
2022/02/21 13:43:26;;;;;;;15.10;2.40;;;;;;;;;;5049924;28;20189;-68
2022/02/21 13:45:52;;;;;;;18.80;2.93;;;;;;;;;;5050595;28;20258;-68
2022/02/21 13:48:23;;;;;;;15.10;2.57;;;;;;;;;;5051552;28;20244;-69
2022/02/21 13:50:50;;;;;;;15.63;3.83;;;;;;;;;;5048727;28;20182;-69
2022/02/21 13:53:17;;;;;;;17.17;3.63;;;;;;;;;;5050315;28;20214;-68
2022/02/21 13:55:44;;;;;;;18.03;3.60;;;;;;;;;;5047419;28;20632;-68
2022/02/21 13:58:14;;;;;;;16.07;3.17;;;;;;;;;;5047903;28;20651;-69
2022/02/21 14:00:48;;;;;;;25.60;3.50;;;;;;;;;;5048568;28;20185;-68
2022/02/21 14:03:15;;;;;;;14.27;3.47;;;;;;;;;;5048131;28;20552;-68
2022/02/21 14:05:52;;;;;;;16.27;3.20;;;;;;;;;;5046688;28;20186;-68
2022/02/21 14:08:17;;;;;;;13.40;2.70;;;;;;;;;;5046551;28;21393;-68
2022/02/21 14:11:09;;;;;;;7.50;3.20;;;;;;;;;;5050656;28;20318;-67
2022/02/21 14:13:34;;;;;;;17.03;3.80;;;;;;;;;;5037775;28;20217;-71
2022/02/21 14:16:00;;;;;;;8.90;2.73;;;;;;;;;;5050793;28;20537;-68
2022/02/21 14:18:25;;;;;;;9.27;2.30;;;;;;;;;;5051038;28;20546;-69
2022/02/21 14:20:51;;;;;;;7.27;1.90;;;;;;;;;;5051024;28;20182;-69
2022/02/21 14:23:16;;;;;;;17.23;2.20;;;;;;;;;;5054171;28;20669;-69
2022/02/21 14:25:41;;;;;;;15.47;2.93;;;;;;;;;;5061690;28;20264;-68
2022/02/21 14:28:07;;;;;;;11.33;3.23;;;;;;;;;;5048498;22;20241;-71